Time;durP1;ratioP1;P1;durP2;ratioP2;P2;SDS_P1;SDS_P2;PMS_P1;PMS_P2;Temp;Humidity;BMP_temperature;BMP_pressure;BME280_temperature;BME280_humidity;BME280_pressure;Samples;Min_cycle;Max_cycle;Signal;HPM_P1;HPM_P2
2023/12/01 00:02:21;;;;;;;0.45;0.45;;;3.60;99.90;;;;;;5076456;28;20017;-73
2023/12/01 00:04:47;;;;;;;2.25;1.48;;;3.70;99.90;;;;;;5076383;28;20032;-72
2023/12/01 00:07:13;;;;;;;1.08;1.08;;;3.60;99.90;;;;;;5076173;28;20020;-73
2023/12/01 00:09:40;;;;;;;0.90;0.90;;;3.40;99.90;;;;;;5076365;28;20107;-72
2023/12/01 00:12:06;;;;;;;0.10;0.10;;;3.50;99.90;;;;;;5076380;28;20020;-72
2023/12/01 00:14:32;;;;;;;2.38;1.55;;;3.40;99.90;;;;;;5076306;28;20037;-73
2023/12/01 00:16:58;;;;;;;0.98;0.98;;;3.40;99.90;;;;;;5074966;28;20024;-72
2023/12/01 00:19:24;;;;;;;0.20;0.20;;;3.40;99.90;;;;;;5076257;28;20377;-72
2023/12/01 00:21:50;;;;;;;0.45;0.45;;;3.50;99.90;;;;;;5075875;28;20064;-72
2023/12/01 00:24:16;;;;;;;3.40;2.33;;;3.50;99.90;;;;;;5076130;28;20036;-73
2023/12/01 00:26:41;;;;;;;9.82;2.15;;;3.30;99.90;;;;;;5076134;28;20031;-74
2023/12/01 00:29:07;;;;;;;12.63;5.15;;;3.30;99.90;;;;;;5075949;28;20107;-74
2023/12/01 00:31:33;;;;;;;1.58;1.48;;;3.00;99.90;;;;;;5074659;28;20025;-73
2023/12/01 00:33:59;;;;;;;2.90;2.67;;;3.00;99.90;;;;;;5074695;28;20044;-74
2023/12/01 00:36:25;;;;;;;0.20;0.20;;;3.00;99.90;;;;;;5061466;28;20021;-74
2023/12/01 00:38:51;;;;;;;6.32;1.63;;;2.90;99.90;;;;;;5074794;28;20374;-74
2023/12/01 00:41:17;;;;;;;3.78;3.42;;;2.90;99.90;;;;;;5075759;28;20158;-73
2023/12/01 00:43:43;;;;;;;2.45;1.83;;;3.00;99.90;;;;;;5074195;28;20028;-74
2023/12/01 00:46:09;;;;;;;0.43;0.43;;;3.00;99.90;;;;;;5074449;28;20033;-74
2023/12/01 00:48:35;;;;;;;3.75;3.40;;;3.10;99.90;;;;;;5075877;28;20025;-74
2023/12/01 00:51:02;;;;;;;0.73;0.73;;;3.10;99.90;;;;;;5074030;28;20036;-74
2023/12/01 00:53:28;;;;;;;0.77;0.77;;;3.20;99.90;;;;;;5073980;28;20033;-74
2023/12/01 00:55:54;;;;;;;1.38;1.23;;;3.20;99.90;;;;;;5074228;28;20063;-74
2023/12/01 00:58:20;;;;;;;0.10;0.10;;;3.20;99.90;;;;;;5074232;28;20479;-74
2023/12/01 01:00:46;;;;;;;0.95;0.88;;;3.30;99.90;;;;;;5074051;28;20016;-74
2023/12/01 01:03:12;;;;;;;0.10;0.10;;;3.40;99.90;;;;;;5074123;28;20098;-74
2023/12/01 01:05:38;;;;;;;0.10;0.10;;;3.40;99.90;;;;;;5070614;28;20055;-74
2023/12/01 01:08:04;;;;;;;1.23;1.13;;;3.40;99.90;;;;;;5062980;28;20024;-73
2023/12/01 01:10:30;;;;;;;3.92;0.45;;;3.50;99.90;;;;;;5072951;28;20127;-74
2023/12/01 01:12:56;;;;;;;12.52;1.98;;;3.60;99.90;;;;;;5060824;28;20111;-74
2023/12/01 01:15:21;;;;;;;0.17;0.17;;;3.30;99.90;;;;;;5073967;28;20184;-73
2023/12/01 01:17:47;;;;;;;5.60;2.50;;;3.30;99.90;;;;;;5074963;28;20028;-74
2023/12/01 01:20:13;;;;;;;1.10;1.10;;;3.40;99.90;;;;;;5056875;28;20036;-74
2023/12/01 01:22:39;;;;;;;0.57;0.57;;;3.40;99.90;;;;;;5073755;28;20012;-73
2023/12/01 01:25:05;;;;;;;1.02;1.02;;;3.00;99.90;;;;;;5070411;28;20066;-74
2023/12/01 01:27:31;;;;;;;0.10;0.10;;;3.30;99.90;;;;;;5070048;28;20029;-75
2023/12/01 01:29:58;;;;;;;2.38;2.03;;;3.40;99.90;;;;;;5075457;28;20039;-74
2023/12/01 01:32:24;;;;;;;3.53;1.98;;;3.20;99.90;;;;;;5073527;28;20029;-74
2023/12/01 01:34:50;;;;;;;0.50;0.45;;;3.00;99.90;;;;;;5071844;28;20027;-74
2023/12/01 01:37:16;;;;;;;4.07;1.00;;;3.00;99.90;;;;;;5044274;28;20476;-74
2023/12/01 01:39:42;;;;;;;2.50;2.08;;;3.00;99.90;;;;;;5073553;28;20045;-73
2023/12/01 01:42:08;;;;;;;0.80;0.80;;;3.20;99.90;;;;;;5074570;28;20021;-74
2023/12/01 01:44:35;;;;;;;2.50;0.52;;;3.00;99.90;;;;;;5073349;28;20056;-74
2023/12/01 01:47:02;;;;;;;2.97;2.55;;;3.00;99.90;;;;;;5073209;28;20027;-73
2023/12/01 01:49:28;;;;;;;0.20;0.20;;;3.10;99.90;;;;;;5056346;28;20063;-74
2023/12/01 01:51:56;;;;;;;1.10;1.10;;;3.00;99.90;;;;;;5072948;28;20032;-74
2023/12/01 01:54:25;;;;;;;0.30;0.30;;;3.20;99.90;;;;;;5073342;28;20055;-74
2023/12/01 01:56:52;;;;;;;3.83;3.13;;;3.20;99.90;;;;;;5072920;28;20112;-74
2023/12/01 01:59:22;;;;;;;0.85;0.73;;;3.20;99.90;;;;;;5073241;28;20028;-74
2023/12/01 02:01:49;;;;;;;8.27;2.70;;;3.20;99.90;;;;;;5073065;28;20047;-74
2023/12/01 02:04:16;;;;;;;0.35;0.35;;;3.10;99.90;;;;;;5072322;28;20033;-74
2023/12/01 02:06:45;;;;;;;0.15;0.15;;;3.20;99.90;;;;;;5074449;28;20055;-74
2023/12/01 02:09:15;;;;;;;0.20;0.20;;;3.10;99.90;;;;;;5074064;28;20013;-73
2023/12/01 02:11:41;;;;;;;0.28;0.28;;;3.30;99.90;;;;;;5073040;28;20078;-74
2023/12/01 02:14:07;;;;;;;0.30;0.30;;;3.40;99.90;;;;;;5073581;28;20178;-74
2023/12/01 02:16:33;;;;;;;1.13;1.08;;;3.40;99.90;;;;;;5073462;28;20495;-74
2023/12/01 02:18:59;;;;;;;2.80;2.63;;;3.40;99.90;;;;;;5072377;28;20032;-74
2023/12/01 02:21:28;;;;;;;0.08;0.08;;;3.40;99.90;;;;;;5074064;28;20035;-74
2023/12/01 02:23:55;;;;;;;0.52;0.52;;;3.40;99.90;;;;;;5072509;28;20075;-74
2023/12/01 02:26:22;;;;;;;0.15;0.15;;;3.30;99.90;;;;;;5054896;28;20035;-74
2023/12/01 02:28:49;;;;;;;0.28;0.28;;;3.40;99.90;;;;;;5053699;28;20021;-73
2023/12/01 02:31:14;;;;;;;0.00;0.00;;;3.50;99.90;;;;;;5053790;28;20477;-73
2023/12/01 02:33:40;;;;;;;3.65;1.77;;;3.50;99.90;;;;;;5053166;28;20047;-74
2023/12/01 02:36:08;;;;;;;0.15;0.15;;;3.60;99.90;;;;;;5053874;28;20025;-74
2023/12/01 02:38:35;;;;;;;7.28;1.75;;;3.60;99.90;;;;;;5053618;28;20044;-74
2023/12/01 02:41:02;;;;;;;0.22;0.22;;;3.70;99.90;;;;;;5052631;28;20566;-74
2023/12/01 02:43:28;;;;;;;2.33;0.98;;;3.60;99.90;;;;;;5052111;28;20089;-74
2023/12/01 02:45:55;;;;;;;2.78;2.10;;;3.60;99.90;;;;;;5051697;28;20488;-74
2023/12/01 02:48:21;;;;;;;0.82;0.82;;;3.80;99.90;;;;;;5053485;28;20021;-74
2023/12/01 02:50:47;;;;;;;0.10;0.10;;;3.70;99.90;;;;;;5053241;28;20108;-73
2023/12/01 02:53:15;;;;;;;0.57;0.57;;;3.80;99.90;;;;;;5053222;28;20182;-74
2023/12/01 02:55:42;;;;;;;4.35;1.08;;;3.70;99.90;;;;;;5052006;28;20054;-74
2023/12/01 02:58:08;;;;;;;0.35;0.35;;;3.60;99.90;;;;;;5053366;28;20029;-74
2023/12/01 03:00:35;;;;;;;0.40;0.28;;;3.60;99.90;;;;;;5052836;28;20025;-74
2023/12/01 03:03:00;;;;;;;0.00;0.00;;;3.50;99.90;;;;;;5051780;28;20048;-73
2023/12/01 03:05:26;;;;;;;1.55;1.45;;;3.80;99.90;;;;;;5051837;28;20048;-74
2023/12/01 03:07:52;;;;;;;0.03;0.03;;;3.80;99.90;;;;;;5051758;28;20036;-72
2023/12/01 03:10:18;;;;;;;0.00;0.00;;;3.80;99.90;;;;;;5051768;28;20059;-72
2023/12/01 03:12:44;;;;;;;0.43;0.43;;;4.00;99.90;;;;;;5051499;28;20064;-72
2023/12/01 03:15:13;;;;;;;1.95;1.05;;;3.90;99.90;;;;;;5051225;28;20560;-72
2023/12/01 03:17:39;;;;;;;0.85;0.85;;;3.90;99.90;;;;;;5051831;28;20477;-72
2023/12/01 03:20:10;;;;;;;0.10;0.10;;;3.90;99.90;;;;;;5051379;28;20087;-72
2023/12/01 03:22:41;;;;;;;0.60;0.60;;;3.70;99.90;;;;;;5035027;28;20055;-72
2023/12/01 03:25:09;;;;;;;0.98;0.90;;;3.50;99.90;;;;;;5051510;28;20082;-72
2023/12/01 03:27:40;;;;;;;4.38;0.85;;;3.70;99.90;;;;;;5051538;28;20060;-72
2023/12/01 03:30:13;;;;;;;0.80;0.80;;;3.80;99.90;;;;;;5051086;28;20036;-72
2023/12/01 03:32:50;;;;;;;7.03;3.20;;;3.80;99.90;;;;;;5051395;28;20047;-72
2023/12/01 03:35:20;;;;;;;5.63;3.08;;;3.80;99.90;;;;;;5052489;28;20029;-72
2023/12/01 03:37:46;;;;;;;0.10;0.10;;;3.60;99.90;;;;;;5051531;28;20040;-72
2023/12/01 03:40:12;;;;;;;0.30;0.30;;;3.50;99.90;;;;;;5052445;28;20478;-72
2023/12/01 03:42:47;;;;;;;9.52;3.88;;;3.40;99.90;;;;;;5051509;28;20021;-72
2023/12/01 03:45:14;;;;;;;0.57;0.57;;;3.40;99.90;;;;;;5051006;28;20037;-72
2023/12/01 03:47:50;;;;;;;2.33;1.75;;;3.40;99.90;;;;;;5051347;28;20032;-72
2023/12/01 03:50:18;;;;;;;3.05;0.82;;;3.30;99.90;;;;;;5052417;28;20531;-72
2023/12/01 03:52:46;;;;;;;6.10;4.90;;;3.20;99.90;;;;;;5034530;28;20025;-72
2023/12/01 03:55:13;;;;;;;6.18;2.00;;;3.20;99.90;;;;;;5052577;28;20439;-72
2023/12/01 03:57:40;;;;;;;2.40;2.28;;;3.40;99.90;;;;;;5034573;28;20556;-72
2023/12/01 04:00:13;;;;;;;0.32;0.32;;;3.50;99.90;;;;;;5050897;28;20051;-72
2023/12/01 04:02:44;;;;;;;3.63;0.88;;;3.50;99.90;;;;;;5034659;28;20036;-72
2023/12/01 04:05:17;;;;;;;0.10;0.10;;;3.50;99.90;;;;;;5034764;28;20032;-73
2023/12/01 04:07:44;;;;;;;1.25;0.98;;;3.40;99.90;;;;;;5035782;28;20024;-73
2023/12/01 04:10:10;;;;;;;1.95;1.85;;;3.30;99.90;;;;;;5053484;28;20025;-72
2023/12/01 04:12:44;;;;;;;1.90;1.20;;;3.20;99.90;;;;;;5052095;28;20484;-72
2023/12/01 04:15:19;;;;;;;2.28;2.08;;;3.40;99.90;;;;;;5052245;28;20036;-73
2023/12/01 04:17:48;;;;;;;0.00;0.00;;;3.40;99.90;;;;;;5051321;28;20036;-73
2023/12/01 04:20:22;;;;;;;2.20;1.55;;;3.30;99.90;;;;;;5051049;28;20469;-73
2023/12/01 04:22:53;;;;;;;0.00;0.00;;;3.20;99.90;;;;;;5050873;28;20108;-73
2023/12/01 04:25:20;;;;;;;1.33;1.20;;;3.30;99.90;;;;;;5050838;28;20037;-73
2023/12/01 04:27:50;;;;;;;0.10;0.10;;;3.20;99.90;;;;;;5051857;28;20037;-74
2023/12/01 04:30:16;;;;;;;0.70;0.68;;;3.20;99.90;;;;;;5052118;28;20025;-74
2023/12/01 04:32:52;;;;;;;7.93;2.05;;;3.10;99.90;;;;;;5052104;28;20025;-73
2023/12/01 04:35:22;;;;;;;0.95;0.93;;;3.20;99.90;;;;;;5034177;28;20466;-73
2023/12/01 04:37:49;;;;;;;0.65;0.65;;;3.20;99.90;;;;;;5051983;28;20113;-73
2023/12/01 04:40:15;;;;;;;0.40;0.40;;;3.20;99.90;;;;;;5051887;28;20071;-73
2023/12/01 04:42:48;;;;;;;6.35;1.27;;;3.30;99.90;;;;;;5055538;28;20028;-74
2023/12/01 04:45:17;;;;;;;0.20;0.20;;;3.30;99.90;;;;;;5054420;28;20546;-74
2023/12/01 04:47:44;;;;;;;2.20;0.85;;;3.30;99.90;;;;;;5055609;28;20029;-73
2023/12/01 04:50:13;;;;;;;4.03;3.40;;;3.30;99.90;;;;;;5054861;28;20025;-73
2023/12/01 04:52:43;;;;;;;1.25;1.25;;;3.30;99.90;;;;;;5055514;28;20037;-74
2023/12/01 04:55:14;;;;;;;0.10;0.10;;;3.30;99.90;;;;;;5055837;28;20028;-73
2023/12/01 04:57:42;;;;;;;0.20;0.20;;;3.40;99.90;;;;;;5055186;28;20043;-73
2023/12/01 05:00:22;;;;;;;0.20;0.20;;;3.40;99.90;;;;;;5054428;28;20499;-74
2023/12/01 05:03:04;;;;;;;1.20;1.20;;;3.40;99.90;;;;;;5055223;28;20036;-74
2023/12/01 05:05:35;;;;;;;0.75;0.63;;;3.40;99.90;;;;;;5053954;28;20024;-73
2023/12/01 05:08:07;;;;;;;0.32;0.32;;;3.40;99.90;;;;;;5055507;28;20478;-73
2023/12/01 05:10:34;;;;;;;1.60;1.50;;;3.50;99.90;;;;;;5055323;28;20504;-73
2023/12/01 05:13:05;;;;;;;5.82;2.72;;;3.50;99.90;;;;;;5054628;28;20037;-74
2023/12/01 05:15:36;;;;;;;0.40;0.40;;;3.40;99.90;;;;;;5054027;28;20056;-72
2023/12/01 05:18:07;;;;;;;1.45;0.95;;;3.20;99.90;;;;;;5053690;28;20037;-73
2023/12/01 05:20:34;;;;;;;2.10;1.90;;;3.10;99.90;;;;;;5055013;28;20477;-73
2023/12/01 05:23:09;;;;;;;8.48;3.75;;;2.90;99.90;;;;;;5054898;28;20041;-73
2023/12/01 05:25:37;;;;;;;2.80;2.63;;;2.90;99.90;;;;;;5053842;28;20033;-73
2023/12/01 05:28:06;;;;;;;1.65;1.20;;;2.80;99.90;;;;;;5053460;28;20079;-73
2023/12/01 05:30:38;;;;;;;0.10;0.10;;;3.00;99.90;;;;;;5055131;28;20025;-73
2023/12/01 05:33:04;;;;;;;0.30;0.30;;;3.10;99.90;;;;;;5053489;28;20144;-72
2023/12/01 05:35:31;;;;;;;4.03;2.10;;;3.00;99.90;;;;;;5037104;28;20029;-73
2023/12/01 05:37:58;;;;;;;0.17;0.17;;;3.00;99.90;;;;;;5054830;28;20032;-73
2023/12/01 05:40:24;;;;;;;4.28;1.17;;;2.80;99.90;;;;;;5054452;28;20469;-73
2023/12/01 05:42:54;;;;;;;1.00;0.95;;;2.90;99.90;;;;;;5056679;28;20020;-73
2023/12/01 05:45:22;;;;;;;0.47;0.47;;;2.90;99.90;;;;;;5053828;28;20118;-73
2023/12/01 05:47:50;;;;;;;1.40;1.38;;;3.00;99.90;;;;;;5051729;28;20047;-73
2023/12/01 05:50:17;;;;;;;1.77;1.65;;;3.00;99.90;;;;;;5054296;28;20108;-73
2023/12/01 05:52:45;;;;;;;0.52;0.52;;;2.90;99.90;;;;;;5052781;28;20474;-73
2023/12/01 05:55:15;;;;;;;2.63;2.42;;;3.00;99.90;;;;;;5052479;28;20029;-73
2023/12/01 05:57:45;;;;;;;2.33;2.13;;;2.90;99.90;;;;;;5053887;28;20032;-73
2023/12/01 06:00:20;;;;;;;1.33;1.20;;;3.10;99.90;;;;;;5054380;28;20110;-73
2023/12/01 06:02:47;;;;;;;0.00;0.00;;;3.00;99.90;;;;;;5052292;28;20036;-73
2023/12/01 06:05:15;;;;;;;1.15;1.10;;;3.00;99.90;;;;;;5054234;28;20051;-73
2023/12/01 06:07:49;;;;;;;5.05;4.13;;;2.90;99.90;;;;;;5039618;28;20033;-73
2023/12/01 06:10:16;;;;;;;1.70;1.60;;;2.80;99.90;;;;;;5042765;28;20467;-73
2023/12/01 06:12:42;;;;;;;0.43;0.43;;;2.70;99.90;;;;;;5051129;28;20067;-72
2023/12/01 06:15:09;;;;;;;0.10;0.10;;;2.90;99.90;;;;;;5054216;28;20545;-73
2023/12/01 06:17:41;;;;;;;1.30;1.20;;;3.10;99.90;;;;;;5052408;28;20060;-73
2023/12/01 06:20:18;;;;;;;2.30;2.03;;;3.10;99.90;;;;;;5054090;28;20517;-73
2023/12/01 06:23:05;;;;;;;5.35;1.35;;;3.00;99.90;;;;;;5053676;28;20389;-73
2023/12/01 06:25:32;;;;;;;0.05;0.05;;;3.10;99.90;;;;;;5026038;28;20486;-73
2023/12/01 06:28:03;;;;;;;1.75;1.65;;;2.90;99.90;;;;;;5049427;28;20033;-73
2023/12/01 06:30:34;;;;;;;2.83;1.42;;;3.10;99.90;;;;;;5053799;28;20106;-73
2023/12/01 06:33:01;;;;;;;3.23;2.63;;;3.20;99.90;;;;;;5053255;28;20039;-73
2023/12/01 06:35:27;;;;;;;1.33;1.27;;;3.10;99.90;;;;;;5053712;28;20041;-73
2023/12/01 06:37:53;;;;;;;2.03;1.15;;;3.10;99.90;;;;;;5053447;28;20036;-73
2023/12/01 06:40:20;;;;;;;0.10;0.10;;;3.10;99.90;;;;;;5053462;28;20359;-73
2023/12/01 06:42:56;;;;;;;5.18;2.30;;;3.20;99.90;;;;;;5052573;28;20057;-73
2023/12/01 06:45:26;;;;;;;0.10;0.10;;;3.40;99.90;;;;;;5052393;28;20420;-73
2023/12/01 06:47:53;;;;;;;3.25;2.72;;;3.20;99.90;;;;;;5053505;28;20037;-77
2023/12/01 06:50:20;;;;;;;1.40;1.27;;;2.90;99.90;;;;;;5053445;28;20019;-73
2023/12/01 06:52:48;;;;;;;0.10;0.10;;;2.90;99.90;;;;;;5054423;28;20021;-73
2023/12/01 06:55:14;;;;;;;3.95;2.28;;;2.70;99.90;;;;;;5055098;28;20476;-73
2023/12/01 06:57:49;;;;;;;3.60;2.08;;;2.70;99.90;;;;;;5054104;28;20024;-73
2023/12/01 07:00:36;;;;;;;0.20;0.20;;;2.70;99.90;;;;;;5051098;28;20410;-77
2023/12/01 07:03:04;;;;;;;0.10;0.10;;;2.70;99.90;;;;;;5045039;28;20473;-77
2023/12/01 07:05:31;;;;;;;1.42;1.33;;;2.90;99.90;;;;;;5049909;28;20442;-74
2023/12/01 07:07:58;;;;;;;0.00;0.00;;;2.80;99.90;;;;;;5050933;28;20067;-74
2023/12/01 07:10:25;;;;;;;1.70;1.60;;;2.90;99.90;;;;;;5046434;28;20386;-74
2023/12/01 07:12:55;;;;;;;0.95;0.95;;;3.00;99.90;;;;;;5046740;28;20440;-73
2023/12/01 07:15:22;;;;;;;0.00;0.00;;;3.00;99.90;;;;;;5058716;28;20098;-72
2023/12/01 07:17:56;;;;;;;0.75;0.75;;;3.20;99.90;;;;;;5035230;28;20104;-72
2023/12/01 07:20:22;;;;;;;10.25;1.83;;;3.10;99.90;;;;;;5053788;28;20028;-73
2023/12/01 07:22:51;;;;;;;30.65;4.18;;;2.90;99.90;;;;;;5054008;28;20021;-75
2023/12/01 07:25:21;;;;;;;0.38;0.38;;;2.70;99.90;;;;;;5061674;28;20100;-73
2023/12/01 07:27:53;;;;;;;1.15;1.08;;;2.50;99.90;;;;;;5049157;28;20022;-73
2023/12/01 07:30:19;;;;;;;12.68;5.18;;;2.50;99.90;;;;;;5051317;28;20056;-73
2023/12/01 07:32:46;;;;;;;8.80;4.40;;;2.40;99.90;;;;;;5057010;28;20480;-73
2023/12/01 07:35:12;;;;;;;1.27;1.17;;;2.50;99.90;;;;;;5054748;28;20044;-74
2023/12/01 07:37:42;;;;;;;7.15;3.70;;;2.70;99.90;;;;;;5053825;28;20035;-74
2023/12/01 07:40:09;;;;;;;2.22;2.03;;;2.70;99.90;;;;;;5060830;28;20381;-75
2023/12/01 07:42:36;;;;;;;0.22;0.22;;;2.80;99.90;;;;;;5053461;28;20021;-72
2023/12/01 07:45:02;;;;;;;10.00;3.63;;;2.90;99.90;;;;;;5057217;28;20024;-73
2023/12/01 07:47:27;;;;;;;2.72;1.20;;;2.90;99.90;;;;;;5051539;28;20094;-74
2023/12/01 07:49:53;;;;;;;2.63;1.35;;;2.60;99.90;;;;;;5041531;28;20018;-74
2023/12/01 07:52:19;;;;;;;0.73;0.73;;;2.70;99.90;;;;;;5045911;28;20507;-75
2023/12/01 07:54:47;;;;;;;0.80;0.30;;;2.60;99.90;;;;;;5041830;28;20386;-75
2023/12/01 07:57:12;;;;;;;0.10;0.10;;;2.60;99.90;;;;;;5044933;28;20419;-78
2023/12/01 07:59:38;;;;;;;0.10;0.10;;;2.70;99.90;;;;;;5051553;28;20029;-74
2023/12/01 08:02:04;;;;;;;4.38;4.03;;;2.90;99.90;;;;;;5052078;28;20032;-75
2023/12/01 08:04:31;;;;;;;0.47;0.47;;;2.70;99.90;;;;;;5042674;28;20146;-79
2023/12/01 08:06:57;;;;;;;1.30;1.20;;;2.70;99.90;;;;;;5042367;28;20037;-76
2023/12/01 08:09:23;;;;;;;9.13;1.48;;;2.60;99.90;;;;;;5051682;28;20033;-75
2023/12/01 08:11:49;;;;;;;0.00;0.00;;;2.70;99.90;;;;;;5051870;28;20060;-75
2023/12/01 08:14:15;;;;;;;1.17;0.65;;;2.70;99.90;;;;;;5045359;28;20114;-76
2023/12/01 08:16:42;;;;;;;3.55;1.88;;;2.80;99.90;;;;;;5055571;28;20029;-74
2023/12/01 08:19:09;;;;;;;4.95;1.38;;;2.80;99.90;;;;;;5053960;28;20134;-77
2023/12/01 08:21:36;;;;;;;0.10;0.10;;;2.90;99.90;;;;;;5053938;28;20025;-74
2023/12/01 08:24:06;;;;;;;3.70;1.55;;;2.70;99.90;;;;;;5053536;28;20373;-76
2023/12/01 08:26:32;;;;;;;2.65;2.45;;;2.60;99.90;;;;;;5055627;28;20086;-76
2023/12/01 08:28:58;;;;;;;4.57;3.17;;;2.70;99.90;;;;;;5054838;28;20021;-75
2023/12/01 08:31:24;;;;;;;0.38;0.32;;;2.70;99.90;;;;;;5053744;28;20098;-74
2023/12/01 08:33:50;;;;;;;0.52;0.52;;;2.70;99.90;;;;;;5051667;28;20409;-76
2023/12/01 08:36:18;;;;;;;0.20;0.20;;;2.70;99.90;;;;;;5044926;28;20029;-74
2023/12/01 08:38:44;;;;;;;0.30;0.30;;;2.80;99.90;;;;;;5050792;28;20043;-78
2023/12/01 08:41:10;;;;;;;2.22;2.03;;;3.00;99.90;;;;;;5054739;28;20079;-74
2023/12/01 08:43:36;;;;;;;0.95;0.95;;;2.80;99.90;;;;;;5064536;28;20115;-74
2023/12/01 08:46:02;;;;;;;2.42;2.25;;;3.00;99.90;;;;;;5055591;28;20124;-73
2023/12/01 08:48:28;;;;;;;2.00;1.30;;;2.80;99.90;;;;;;5055408;28;20462;-73
2023/12/01 08:50:54;;;;;;;7.65;2.33;;;2.70;99.90;;;;;;5055344;28;20126;-74
2023/12/01 08:53:22;;;;;;;1.15;1.08;;;2.60;99.90;;;;;;5054068;28;20047;-74
2023/12/01 08:55:48;;;;;;;0.20;0.20;;;2.60;99.90;;;;;;5052601;28;20032;-76
2023/12/01 08:58:14;;;;;;;4.20;0.75;;;2.70;99.90;;;;;;5054163;28;20120;-75
2023/12/01 09:00:40;;;;;;;0.13;0.13;;;2.70;99.90;;;;;;5054185;28;20128;-75
2023/12/01 09:03:06;;;;;;;2.63;2.42;;;2.80;99.90;;;;;;5066501;28;20025;-78
2023/12/01 09:05:33;;;;;;;5.90;4.63;;;2.90;99.90;;;;;;5053666;28;20097;-73
2023/12/01 09:08:01;;;;;;;4.05;3.30;;;3.20;99.90;;;;;;5037161;28;20398;-74
2023/12/01 09:10:28;;;;;;;2.50;2.35;;;3.10;99.90;;;;;;5048155;28;20121;-73
2023/12/01 09:12:53;;;;;;;2.72;1.60;;;3.10;99.90;;;;;;5054748;28;20033;-74
2023/12/01 09:15:19;;;;;;;4.40;2.72;;;3.10;99.90;;;;;;5056588;28;20025;-73
2023/12/01 09:17:45;;;;;;;1.33;1.23;;;3.10;99.90;;;;;;5045259;28;20041;-74
2023/12/01 09:20:11;;;;;;;0.10;0.10;;;2.80;99.90;;;;;;5049388;28;20028;-78
2023/12/01 09:22:37;;;;;;;0.73;0.73;;;3.00;99.90;;;;;;5036939;28;20484;-74
2023/12/01 09:25:03;;;;;;;0.52;0.52;;;3.20;99.90;;;;;;5045879;28;20104;-80
2023/12/01 09:27:29;;;;;;;1.27;1.23;;;3.10;99.90;;;;;;5051661;28;20025;-74
2023/12/01 09:29:55;;;;;;;0.93;0.93;;;3.00;99.90;;;;;;5043743;28;20028;-75
2023/12/01 09:32:21;;;;;;;7.57;1.13;;;3.00;99.90;;;;;;5040139;28;20083;-76
2023/12/01 09:34:47;;;;;;;2.35;1.15;;;3.00;99.90;;;;;;5048326;28;20503;-74
2023/12/01 09:37:14;;;;;;;1.90;1.80;;;3.10;99.90;;;;;;5054727;28;20039;-74
2023/12/01 09:39:40;;;;;;;3.40;1.55;;;3.10;99.90;;;;;;5036741;28;20035;-74
2023/12/01 09:42:06;;;;;;;5.28;0.80;;;3.20;99.90;;;;;;5054605;28;20017;-75
2023/12/01 09:44:33;;;;;;;8.45;2.78;;;3.30;99.90;;;;;;5054735;28;20025;-74
2023/12/01 09:47:02;;;;;;;2.13;0.88;;;3.30;99.90;;;;;;5054241;28;20029;-77
2023/12/01 09:49:34;;;;;;;1.50;1.45;;;3.20;99.90;;;;;;5054644;28;20017;-74
2023/12/01 09:52:03;;;;;;;7.15;2.70;;;3.20;99.90;;;;;;5052993;28;20033;-74
2023/12/01 09:54:30;;;;;;;0.10;0.10;;;3.00;99.90;;;;;;5054551;28;20036;-74
2023/12/01 09:56:58;;;;;;;0.45;0.45;;;3.00;99.90;;;;;;5053448;28;20473;-74
2023/12/01 09:59:24;;;;;;;0.68;0.68;;;2.90;99.90;;;;;;5055252;28;20017;-74
2023/12/01 10:01:53;;;;;;;0.65;0.65;;;3.00;99.90;;;;;;5053102;28;20040;-74
2023/12/01 10:04:19;;;;;;;1.75;1.65;;;3.20;99.90;;;;;;5048792;28;20113;-74
2023/12/01 10:06:45;;;;;;;4.15;1.50;;;3.30;99.90;;;;;;5054714;28;20025;-74
2023/12/01 10:09:12;;;;;;;0.30;0.30;;;3.20;99.90;;;;;;5047887;28;20103;-74
2023/12/01 10:11:38;;;;;;;5.03;2.75;;;3.10;99.90;;;;;;5056682;28;20039;-74
2023/12/01 10:14:06;;;;;;;1.42;0.88;;;3.10;99.90;;;;;;5052906;28;20052;-74
2023/12/01 10:16:35;;;;;;;0.47;0.47;;;3.00;99.90;;;;;;5053317;28;20025;-73
2023/12/01 10:19:06;;;;;;;1.17;1.17;;;3.20;99.90;;;;;;5053504;28;20029;-74
2023/12/01 10:21:44;;;;;;;1.08;0.85;;;3.10;99.90;;;;;;5053364;28;20075;-74
2023/12/01 10:24:15;;;;;;;1.08;1.05;;;3.20;99.90;;;;;;5050295;28;20072;-74
2023/12/01 10:26:42;;;;;;;0.45;0.45;;;3.20;99.90;;;;;;5048835;28;20474;-74
2023/12/01 10:29:23;;;;;;;1.75;1.65;;;3.00;99.90;;;;;;5041270;28;20026;-74
2023/12/01 10:31:49;;;;;;;11.00;3.60;;;3.00;99.90;;;;;;5049459;28;20029;-74
2023/12/01 10:34:15;;;;;;;0.57;0.57;;;2.80;99.90;;;;;;5047935;28;20033;-74
2023/12/01 10:36:42;;;;;;;0.70;0.70;;;3.10;99.90;;;;;;5053246;28;20024;-73
2023/12/01 10:39:10;;;;;;;0.20;0.20;;;3.10;99.90;;;;;;5052656;28;20033;-74
2023/12/01 10:41:39;;;;;;;2.63;0.93;;;3.40;99.90;;;;;;5052967;28;20021;-75
2023/12/01 10:44:06;;;;;;;0.35;0.20;;;3.10;99.90;;;;;;5058531;28;20029;-75
2023/12/01 10:46:34;;;;;;;1.48;1.40;;;3.20;99.90;;;;;;5054189;28;20111;-74
2023/12/01 10:49:02;;;;;;;0.28;0.28;;;3.40;99.90;;;;;;5052610;28;20028;-73
2023/12/01 10:51:30;;;;;;;2.92;2.72;;;3.50;99.90;;;;;;5067366;28;20431;-76
2023/12/01 10:53:57;;;;;;;2.95;2.70;;;3.40;99.90;;;;;;5045879;28;20390;-74
2023/12/01 10:56:24;;;;;;;0.30;0.30;;;3.60;99.90;;;;;;5048254;28;20041;-75
2023/12/01 10:58:53;;;;;;;4.80;3.17;;;3.40;99.90;;;;;;5051808;28;20493;-73
2023/12/01 11:01:22;;;;;;;4.03;2.35;;;3.30;99.90;;;;;;5045816;28;20033;-76
2023/12/01 11:03:51;;;;;;;15.60;5.50;;;3.10;99.90;;;;;;5047732;28;20037;-74
2023/12/01 11:06:35;;;;;;;0.10;0.10;;;3.30;99.90;;;;;;5052173;28;20179;-80
2023/12/01 11:09:24;;;;;;;3.58;3.22;;;3.40;99.90;;;;;;5050005;28;20025;-75
2023/12/01 11:12:31;;;;;;;4.38;2.55;;;3.40;99.90;;;;;;5035972;28;20466;-75
2023/12/01 11:15:06;;;;;;;4.90;1.98;;;3.40;99.90;;;;;;5050338;28;20045;-75
2023/12/01 11:17:32;;;;;;;4.65;3.40;;;3.40;99.90;;;;;;5052767;28;20028;-75
2023/12/01 11:19:58;;;;;;;0.00;0.00;;;3.40;99.90;;;;;;5051568;28;20549;-75
2023/12/01 11:22:29;;;;;;;0.85;0.85;;;3.50;99.90;;;;;;5052841;28;20052;-75
2023/12/01 11:24:56;;;;;;;8.85;2.53;;;3.40;99.90;;;;;;5052424;28;20047;-75
2023/12/01 11:27:25;;;;;;;0.17;0.17;;;3.30;99.90;;;;;;5052739;28;20186;-74
2023/12/01 11:30:08;;;;;;;3.75;0.90;;;3.40;99.90;;;;;;5051879;28;20098;-75
2023/12/01 11:32:40;;;;;;;0.00;0.00;;;3.50;99.90;;;;;;5052546;28;20040;-74
2023/12/01 11:35:09;;;;;;;0.40;0.40;;;3.60;99.90;;;;;;5050961;28;20025;-74
2023/12/01 11:37:58;;;;;;;0.30;0.30;;;3.60;99.90;;;;;;5052752;28;20025;-75
2023/12/01 11:40:26;;;;;;;1.48;0.80;;;3.80;99.90;;;;;;5050923;28;20025;-75
2023/12/01 11:42:52;;;;;;;2.53;1.60;;;4.00;99.90;;;;;;5052299;28;20098;-75
2023/12/01 11:45:36;;;;;;;1.20;1.13;;;3.90;99.90;;;;;;5052424;28;20029;-75
2023/12/01 11:48:07;;;;;;;0.52;0.52;;;3.60;99.90;;;;;;5058229;28;20029;-75
2023/12/01 11:50:33;;;;;;;0.20;0.20;;;3.70;99.90;;;;;;5051440;28;20037;-75
2023/12/01 11:52:59;;;;;;;2.97;1.58;;;3.70;99.90;;;;;;5052678;28;20123;-75
2023/12/01 11:55:26;;;;;;;10.02;3.95;;;3.60;99.90;;;;;;5052281;28;20144;-75
2023/12/01 11:57:53;;;;;;;10.52;2.03;;;3.50;99.90;;;;;;5052224;28;20017;-75
2023/12/01 12:00:19;;;;;;;2.10;1.55;;;3.50;99.90;;;;;;5051183;28;20086;-75
2023/12/01 12:02:46;;;;;;;1.05;0.70;;;3.40;99.90;;;;;;5051805;28;20017;-75
2023/12/01 12:05:12;;;;;;;7.70;1.08;;;3.60;99.90;;;;;;5051737;28;20040;-75
2023/12/01 12:07:38;;;;;;;1.50;1.40;;;3.60;99.90;;;;;;5052202;28;20178;-74
2023/12/01 12:10:08;;;;;;;0.20;0.20;;;3.70;99.90;;;;;;5052432;28;20025;-73
2023/12/01 12:12:34;;;;;;;0.15;0.15;;;3.80;99.90;;;;;;5038783;28;20021;-73
2023/12/01 12:15:10;;;;;;;15.65;4.45;;;3.70;99.90;;;;;;5040751;28;20029;-81
2023/12/01 12:17:37;;;;;;;2.08;1.17;;;3.80;99.90;;;;;;5051673;28;20029;-72
2023/12/01 12:20:05;;;;;;;0.10;0.10;;;3.50;99.90;;;;;;5049838;28;20087;-73
2023/12/01 12:22:31;;;;;;;3.15;1.77;;;3.60;99.90;;;;;;5051987;28;20040;-73
2023/12/01 12:24:56;;;;;;;0.95;0.95;;;3.80;99.90;;;;;;5052078;28;20025;-73
2023/12/01 12:27:22;;;;;;;0.10;0.10;;;3.90;99.90;;;;;;5051838;28;20025;-73
2023/12/01 12:29:49;;;;;;;0.63;0.63;;;3.80;99.90;;;;;;5039039;28;20047;-73
2023/12/01 12:32:15;;;;;;;15.45;2.42;;;3.70;99.90;;;;;;5058098;28;20029;-73
2023/12/01 12:34:41;;;;;;;1.92;0.70;;;3.80;99.90;;;;;;5051756;28;20029;-73
2023/12/01 12:37:11;;;;;;;1.33;1.25;;;4.00;99.90;;;;;;5051863;28;20044;-73
2023/12/01 12:39:36;;;;;;;0.10;0.10;;;4.10;99.90;;;;;;5052334;28;20029;-73
2023/12/01 12:42:02;;;;;;;10.25;3.45;;;3.90;99.90;;;;;;5051644;28;20029;-73
2023/12/01 12:44:32;;;;;;;1.65;1.55;;;3.70;99.90;;;;;;5050889;28;20036;-73
2023/12/01 12:47:01;;;;;;;1.15;1.10;;;3.60;99.90;;;;;;5050449;28;20033;-73
2023/12/01 12:49:31;;;;;;;0.10;0.10;;;3.70;99.90;;;;;;5052079;28;20408;-73
2023/12/01 12:51:58;;;;;;;1.10;1.10;;;3.80;99.90;;;;;;5051854;28;20036;-73
2023/12/01 12:54:24;;;;;;;1.25;0.47;;;3.90;99.90;;;;;;5052177;28;20040;-72
2023/12/01 12:56:50;;;;;;;0.90;0.90;;;3.70;99.90;;;;;;5051807;28;20021;-73
2023/12/01 12:59:16;;;;;;;1.08;1.05;;;3.90;99.90;;;;;;5051640;28;20021;-73
2023/12/01 13:01:42;;;;;;;4.20;1.83;;;4.10;99.90;;;;;;5035644;28;20409;-73
2023/12/01 13:04:08;;;;;;;2.40;1.98;;;4.20;99.90;;;;;;5055441;28;20048;-73